sensor_id;sensor_type;location;lat;lon;timestamp;P1;durP1;ratioP1;P2;durP2;ratioP2
28545;SDS011;15749;49.606;8.738;2023-04-03T00:01:47;1.63;;;1.10;;
28545;SDS011;15749;49.606;8.738;2023-04-03T00:04:16;0.83;;;0.83;;
28545;SDS011;15749;49.606;8.738;2023-04-03T00:06:45;1.03;;;0.93;;
28545;SDS011;15749;49.606;8.738;2023-04-03T00:09:15;1.20;;;1.00;;
28545;SDS011;15749;49.606;8.738;2023-04-03T00:11:45;1.33;;;1.10;;
28545;SDS011;15749;49.606;8.738;2023-04-03T00:14:14;0.87;;;0.87;;
28545;SDS011;15749;49.606;8.738;2023-04-03T00:16:44;0.77;;;0.77;;
28545;SDS011;15749;49.606;8.738;2023-04-03T00:19:14;0.90;;;0.90;;
28545;SDS011;15749;49.606;8.738;2023-04-03T00:21:43;1.07;;;0.97;;
28545;SDS011;15749;49.606;8.738;2023-04-03T00:24:12;1.00;;;0.70;;
28545;SDS011;15749;49.606;8.738;2023-04-03T00:26:41;1.40;;;1.00;;
28545;SDS011;15749;49.606;8.738;2023-04-03T00:29:11;1.40;;;1.30;;
28545;SDS011;15749;49.606;8.738;2023-04-03T00:31:40;1.33;;;1.10;;
28545;SDS011;15749;49.606;8.738;2023-04-03T00:34:10;1.83;;;1.17;;
28545;SDS011;15749;49.606;8.738;2023-04-03T00:36:39;1.53;;;1.13;;
28545;SDS011;15749;49.606;8.738;2023-04-03T00:39:09;1.00;;;0.90;;
28545;SDS011;15749;49.606;8.738;2023-04-03T00:41:37;1.23;;;1.10;;
28545;SDS011;15749;49.606;8.738;2023-04-03T00:44:22;1.33;;;1.00;;
28545;SDS011;15749;49.606;8.738;2023-04-03T00:47:48;1.20;;;1.10;;
28545;SDS011;15749;49.606;8.738;2023-04-03T00:50:19;1.73;;;1.30;;
28545;SDS011;15749;49.606;8.738;2023-04-03T00:52:49;1.37;;;1.27;;
28545;SDS011;15749;49.606;8.738;2023-04-03T00:55:20;1.00;;;0.93;;
28545;SDS011;15749;49.606;8.738;2023-04-03T00:57:49;2.07;;;1.30;;
28545;SDS011;15749;49.606;8.738;2023-04-03T01:00:22;1.50;;;1.40;;
28545;SDS011;15749;49.606;8.738;2023-04-03T01:02:56;1.50;;;1.40;;
28545;SDS011;15749;49.606;8.738;2023-04-03T01:05:27;1.50;;;1.37;;
28545;SDS011;15749;49.606;8.738;2023-04-03T01:07:57;1.63;;;1.53;;
28545;SDS011;15749;49.606;8.738;2023-04-03T01:10:28;1.50;;;1.40;;
28545;SDS011;15749;49.606;8.738;2023-04-03T01:13:01;1.63;;;1.10;;
28545;SDS011;15749;49.606;8.738;2023-04-03T01:15:30;1.27;;;1.17;;
28545;SDS011;15749;49.606;8.738;2023-04-03T01:18:02;1.50;;;1.37;;
28545;SDS011;15749;49.606;8.738;2023-04-03T01:20:49;1.73;;;1.60;;
28545;SDS011;15749;49.606;8.738;2023-04-03T01:23:52;2.50;;;1.77;;
28545;SDS011;15749;49.606;8.738;2023-04-03T01:26:34;1.30;;;1.20;;
28545;SDS011;15749;49.606;8.738;2023-04-03T01:29:03;2.70;;;1.50;;
28545;SDS011;15749;49.606;8.738;2023-04-03T01:31:42;2.23;;;1.80;;
28545;SDS011;15749;49.606;8.738;2023-04-03T01:34:21;1.90;;;1.70;;
28545;SDS011;15749;49.606;8.738;2023-04-03T01:36:52;2.20;;;2.00;;
28545;SDS011;15749;49.606;8.738;2023-04-03T01:39:25;2.03;;;1.83;;
28545;SDS011;15749;49.606;8.738;2023-04-03T01:41:54;2.77;;;1.90;;
28545;SDS011;15749;49.606;8.738;2023-04-03T01:44:30;1.93;;;1.83;;
28545;SDS011;15749;49.606;8.738;2023-04-03T01:47:01;2.23;;;2.03;;
28545;SDS011;15749;49.606;8.738;2023-04-03T01:49:30;2.30;;;1.80;;
28545;SDS011;15749;49.606;8.738;2023-04-03T01:51:59;1.60;;;1.50;;
28545;SDS011;15749;49.606;8.738;2023-04-03T01:54:29;2.27;;;1.67;;
28545;SDS011;15749;49.606;8.738;2023-04-03T01:56:58;1.90;;;1.80;;
28545;SDS011;15749;49.606;8.738;2023-04-03T01:59:27;1.70;;;1.60;;
28545;SDS011;15749;49.606;8.738;2023-04-03T02:01:56;1.60;;;1.50;;
28545;SDS011;15749;49.606;8.738;2023-04-03T02:04:27;2.10;;;1.90;;
28545;SDS011;15749;49.606;8.738;2023-04-03T02:06:56;1.60;;;1.50;;
28545;SDS011;15749;49.606;8.738;2023-04-03T02:09:25;1.40;;;1.30;;
28545;SDS011;15749;49.606;8.738;2023-04-03T02:11:54;1.67;;;1.57;;
28545;SDS011;15749;49.606;8.738;2023-04-03T02:14:23;1.40;;;1.30;;
28545;SDS011;15749;49.606;8.738;2023-04-03T02:16:54;1.60;;;1.50;;
28545;SDS011;15749;49.606;8.738;2023-04-03T02:19:23;2.03;;;1.60;;
28545;SDS011;15749;49.606;8.738;2023-04-03T02:21:54;1.70;;;1.60;;
28545;SDS011;15749;49.606;8.738;2023-04-03T02:24:23;1.47;;;1.37;;
28545;SDS011;15749;49.606;8.738;2023-04-03T02:26:52;2.03;;;1.33;;
28545;SDS011;15749;49.606;8.738;2023-04-03T02:29:21;2.33;;;1.50;;
28545;SDS011;15749;49.606;8.738;2023-04-03T02:31:51;1.73;;;1.50;;
28545;SDS011;15749;49.606;8.738;2023-04-03T02:34:21;1.30;;;1.20;;
28545;SDS011;15749;49.606;8.738;2023-04-03T02:36:51;1.67;;;1.57;;
28545;SDS011;15749;49.606;8.738;2023-04-03T02:39:22;1.50;;;1.40;;
28545;SDS011;15749;49.606;8.738;2023-04-03T02:41:51;1.50;;;1.40;;
28545;SDS011;15749;49.606;8.738;2023-04-03T02:44:23;1.70;;;1.50;;
28545;SDS011;15749;49.606;8.738;2023-04-03T02:46:53;2.57;;;1.60;;
28545;SDS011;15749;49.606;8.738;2023-04-03T02:49:23;2.17;;;1.40;;
28545;SDS011;15749;49.606;8.738;2023-04-03T02:51:53;2.90;;;1.67;;
28545;SDS011;15749;49.606;8.738;2023-04-03T02:54:22;2.40;;;1.50;;
28545;SDS011;15749;49.606;8.738;2023-04-03T02:56:57;2.70;;;1.60;;
28545;SDS011;15749;49.606;8.738;2023-04-03T02:59:27;1.70;;;1.60;;
28545;SDS011;15749;49.606;8.738;2023-04-03T03:01:56;2.00;;;1.80;;
28545;SDS011;15749;49.606;8.738;2023-04-03T03:04:25;2.87;;;1.70;;
28545;SDS011;15749;49.606;8.738;2023-04-03T03:06:57;1.70;;;1.60;;
28545;SDS011;15749;49.606;8.738;2023-04-03T03:09:28;1.50;;;1.40;;
28545;SDS011;15749;49.606;8.738;2023-04-03T03:11:58;2.70;;;1.83;;
28545;SDS011;15749;49.606;8.738;2023-04-03T03:14:29;1.80;;;1.60;;
28545;SDS011;15749;49.606;8.738;2023-04-03T03:16:58;2.53;;;1.87;;
28545;SDS011;15749;49.606;8.738;2023-04-03T03:19:27;2.60;;;1.57;;
28545;SDS011;15749;49.606;8.738;2023-04-03T03:21:58;1.80;;;1.70;;
28545;SDS011;15749;49.606;8.738;2023-04-03T03:24:27;1.57;;;1.47;;
28545;SDS011;15749;49.606;8.738;2023-04-03T03:26:56;2.10;;;1.80;;
28545;SDS011;15749;49.606;8.738;2023-04-03T03:29:25;3.23;;;1.80;;
28545;SDS011;15749;49.606;8.738;2023-04-03T03:31:54;1.73;;;1.63;;
28545;SDS011;15749;49.606;8.738;2023-04-03T03:34:23;1.80;;;1.70;;
28545;SDS011;15749;49.606;8.738;2023-04-03T03:36:52;2.23;;;1.70;;
28545;SDS011;15749;49.606;8.738;2023-04-03T03:39:23;1.40;;;1.30;;
28545;SDS011;15749;49.606;8.738;2023-04-03T03:41:52;1.20;;;1.10;;
28545;SDS011;15749;49.606;8.738;2023-04-03T03:44:21;1.30;;;1.20;;
28545;SDS011;15749;49.606;8.738;2023-04-03T03:46:52;1.30;;;1.20;;
28545;SDS011;15749;49.606;8.738;2023-04-03T03:49:21;1.40;;;1.30;;
28545;SDS011;15749;49.606;8.738;2023-04-03T03:51:51;1.70;;;1.60;;
28545;SDS011;15749;49.606;8.738;2023-04-03T03:54:20;1.80;;;1.60;;
28545;SDS011;15749;49.606;8.738;2023-04-03T03:56:52;2.20;;;2.00;;
28545;SDS011;15749;49.606;8.738;2023-04-03T03:59:23;1.70;;;1.60;;
28545;SDS011;15749;49.606;8.738;2023-04-03T04:01:53;1.70;;;1.60;;
28545;SDS011;15749;49.606;8.738;2023-04-03T04:04:24;2.23;;;1.60;;
28545;SDS011;15749;49.606;8.738;2023-04-03T04:06:54;2.40;;;1.70;;
28545;SDS011;15749;49.606;8.738;2023-04-03T04:09:23;1.50;;;1.40;;
28545;SDS011;15749;49.606;8.738;2023-04-03T04:11:54;1.40;;;1.30;;
28545;SDS011;15749;49.606;8.738;2023-04-03T04:14:26;1.93;;;1.60;;
28545;SDS011;15749;49.606;8.738;2023-04-03T04:16:58;1.43;;;1.33;;
28545;SDS011;15749;49.606;8.738;2023-04-03T04:19:29;2.10;;;1.33;;
28545;SDS011;15749;49.606;8.738;2023-04-03T04:21:58;1.77;;;1.50;;
28545;SDS011;15749;49.606;8.738;2023-04-03T04:24:32;1.50;;;1.40;;
28545;SDS011;15749;49.606;8.738;2023-04-03T04:27:04;1.40;;;1.30;;
28545;SDS011;15749;49.606;8.738;2023-04-03T04:29:34;1.70;;;1.40;;
28545;SDS011;15749;49.606;8.738;2023-04-03T04:32:06;1.97;;;1.70;;
28545;SDS011;15749;49.606;8.738;2023-04-03T04:34:35;1.23;;;1.13;;
28545;SDS011;15749;49.606;8.738;2023-04-03T04:37:05;2.63;;;1.63;;
28545;SDS011;15749;49.606;8.738;2023-04-03T04:39:37;1.90;;;1.77;;
28545;SDS011;15749;49.606;8.738;2023-04-03T04:42:07;1.77;;;1.67;;
28545;SDS011;15749;49.606;8.738;2023-04-03T04:44:43;1.53;;;1.43;;
28545;SDS011;15749;49.606;8.738;2023-04-03T04:47:14;1.63;;;1.50;;
28545;SDS011;15749;49.606;8.738;2023-04-03T04:49:43;1.60;;;1.50;;
28545;SDS011;15749;49.606;8.738;2023-04-03T04:52:15;1.50;;;1.40;;
28545;SDS011;15749;49.606;8.738;2023-04-03T04:54:44;1.43;;;1.33;;
28545;SDS011;15749;49.606;8.738;2023-04-03T04:57:15;1.97;;;1.47;;
28545;SDS011;15749;49.606;8.738;2023-04-03T04:59:46;1.37;;;1.27;;
28545;SDS011;15749;49.606;8.738;2023-04-03T05:02:15;1.40;;;1.30;;
28545;SDS011;15749;49.606;8.738;2023-04-03T05:04:45;1.63;;;1.40;;
28545;SDS011;15749;49.606;8.738;2023-04-03T05:07:20;1.70;;;1.50;;
28545;SDS011;15749;49.606;8.738;2023-04-03T05:09:49;1.57;;;1.47;;
28545;SDS011;15749;49.606;8.738;2023-04-03T05:12:19;1.43;;;1.30;;
28545;SDS011;15749;49.606;8.738;2023-04-03T05:14:54;1.20;;;1.10;;
28545;SDS011;15749;49.606;8.738;2023-04-03T05:17:25;1.20;;;1.10;;
28545;SDS011;15749;49.606;8.738;2023-04-03T05:19:56;1.40;;;1.30;;
28545;SDS011;15749;49.606;8.738;2023-04-03T05:22:26;1.50;;;1.30;;
28545;SDS011;15749;49.606;8.738;2023-04-03T05:25:01;1.20;;;1.10;;
28545;SDS011;15749;49.606;8.738;2023-04-03T05:27:32;1.90;;;1.60;;
28545;SDS011;15749;49.606;8.738;2023-04-03T05:30:02;1.53;;;1.30;;
28545;SDS011;15749;49.606;8.738;2023-04-03T05:32:34;1.30;;;1.20;;
28545;SDS011;15749;49.606;8.738;2023-04-03T05:35:14;1.83;;;1.33;;
28545;SDS011;15749;49.606;8.738;2023-04-03T05:37:46;1.10;;;1.00;;
28545;SDS011;15749;49.606;8.738;2023-04-03T05:40:16;1.23;;;1.13;;
28545;SDS011;15749;49.606;8.738;2023-04-03T05:42:49;1.63;;;1.53;;
28545;SDS011;15749;49.606;8.738;2023-04-03T05:45:22;1.40;;;1.30;;
28545;SDS011;15749;49.606;8.738;2023-04-03T05:47:52;1.83;;;1.60;;
28545;SDS011;15749;49.606;8.738;2023-04-03T05:50:24;1.63;;;1.53;;
28545;SDS011;15749;49.606;8.738;2023-04-03T05:52:54;1.83;;;1.60;;
28545;SDS011;15749;49.606;8.738;2023-04-03T05:55:28;1.53;;;1.33;;
28545;SDS011;15749;49.606;8.738;2023-04-03T05:57:59;2.23;;;1.73;;
28545;SDS011;15749;49.606;8.738;2023-04-03T06:00:28;2.10;;;1.90;;
28545;SDS011;15749;49.606;8.738;2023-04-03T06:03:01;2.20;;;1.90;;
28545;SDS011;15749;49.606;8.738;2023-04-03T06:05:30;3.30;;;2.50;;
28545;SDS011;15749;49.606;8.738;2023-04-03T06:07:59;2.70;;;2.37;;
28545;SDS011;15749;49.606;8.738;2023-04-03T06:10:30;3.13;;;2.20;;
28545;SDS011;15749;49.606;8.738;2023-04-03T06:13:04;2.83;;;2.17;;
28545;SDS011;15749;49.606;8.738;2023-04-03T06:15:33;2.83;;;2.40;;
28545;SDS011;15749;49.606;8.738;2023-04-03T06:18:02;3.17;;;2.47;;
28545;SDS011;15749;49.606;8.738;2023-04-03T06:20:32;2.83;;;2.30;;
28545;SDS011;15749;49.606;8.738;2023-04-03T06:23:01;2.90;;;2.50;;
28545;SDS011;15749;49.606;8.738;2023-04-03T06:25:30;3.23;;;2.37;;
28545;SDS011;15749;49.606;8.738;2023-04-03T06:28:00;2.40;;;2.20;;
28545;SDS011;15749;49.606;8.738;2023-04-03T06:30:31;2.80;;;2.20;;
28545;SDS011;15749;49.606;8.738;2023-04-03T06:33:00;2.73;;;2.43;;
28545;SDS011;15749;49.606;8.738;2023-04-03T06:35:29;2.63;;;2.30;;
28545;SDS011;15749;49.606;8.738;2023-04-03T06:37:58;4.03;;;2.83;;
28545;SDS011;15749;49.606;8.738;2023-04-03T06:40:27;2.60;;;2.40;;
28545;SDS011;15749;49.606;8.738;2023-04-03T06:42:56;2.53;;;2.33;;
28545;SDS011;15749;49.606;8.738;2023-04-03T06:45:25;2.33;;;2.13;;
28545;SDS011;15749;49.606;8.738;2023-04-03T06:47:56;2.57;;;1.80;;
28545;SDS011;15749;49.606;8.738;2023-04-03T06:50:25;2.63;;;2.13;;
28545;SDS011;15749;49.606;8.738;2023-04-03T06:52:54;3.37;;;2.10;;
28545;SDS011;15749;49.606;8.738;2023-04-03T06:55:23;2.40;;;2.20;;
28545;SDS011;15749;49.606;8.738;2023-04-03T06:57:53;3.53;;;2.00;;
28545;SDS011;15749;49.606;8.738;2023-04-03T07:00:22;2.07;;;1.90;;
28545;SDS011;15749;49.606;8.738;2023-04-03T07:02:51;2.33;;;2.07;;
28545;SDS011;15749;49.606;8.738;2023-04-03T07:05:22;2.20;;;2.00;;
28545;SDS011;15749;49.606;8.738;2023-04-03T07:07:51;1.97;;;1.80;;
28545;SDS011;15749;49.606;8.738;2023-04-03T07:10:20;3.13;;;2.17;;
28545;SDS011;15749;49.606;8.738;2023-04-03T07:12:49;4.43;;;2.43;;
28545;SDS011;15749;49.606;8.738;2023-04-03T07:15:19;2.43;;;2.17;;
28545;SDS011;15749;49.606;8.738;2023-04-03T07:17:48;5.00;;;2.03;;
28545;SDS011;15749;49.606;8.738;2023-04-03T07:20:18;4.90;;;2.00;;
28545;SDS011;15749;49.606;8.738;2023-04-03T07:22:48;2.87;;;1.97;;
28545;SDS011;15749;49.606;8.738;2023-04-03T07:25:17;2.00;;;1.80;;
28545;SDS011;15749;49.606;8.738;2023-04-03T07:27:46;2.47;;;1.80;;
28545;SDS011;15749;49.606;8.738;2023-04-03T07:30:16;3.00;;;2.10;;
28545;SDS011;15749;49.606;8.738;2023-04-03T07:32:45;2.63;;;2.00;;
28545;SDS011;15749;49.606;8.738;2023-04-03T07:35:15;4.20;;;2.03;;
28545;SDS011;15749;49.606;8.738;2023-04-03T07:37:44;3.07;;;1.90;;
28545;SDS011;15749;49.606;8.738;2023-04-03T07:40:14;2.63;;;1.67;;
28545;SDS011;15749;49.606;8.738;2023-04-03T07:42:46;1.70;;;1.50;;
28545;SDS011;15749;49.606;8.738;2023-04-03T07:45:15;1.57;;;1.47;;
28545;SDS011;15749;49.606;8.738;2023-04-03T07:47:44;1.80;;;1.27;;
28545;SDS011;15749;49.606;8.738;2023-04-03T07:50:13;1.67;;;1.10;;
28545;SDS011;15749;49.606;8.738;2023-04-03T07:52:43;2.43;;;1.70;;
28545;SDS011;15749;49.606;8.738;2023-04-03T07:55:12;1.80;;;1.30;;
28545;SDS011;15749;49.606;8.738;2023-04-03T07:57:43;2.83;;;1.20;;
28545;SDS011;15749;49.606;8.738;2023-04-03T08:00:12;3.37;;;1.70;;
28545;SDS011;15749;49.606;8.738;2023-04-03T08:02:44;1.13;;;1.00;;
28545;SDS011;15749;49.606;8.738;2023-04-03T08:05:17;1.77;;;1.13;;
28545;SDS011;15749;49.606;8.738;2023-04-03T08:07:47;2.03;;;1.00;;
28545;SDS011;15749;49.606;8.738;2023-04-03T08:10:18;2.10;;;1.20;;
28545;SDS011;15749;49.606;8.738;2023-04-03T08:12:47;3.97;;;1.27;;
28545;SDS011;15749;49.606;8.738;2023-04-03T08:15:16;1.40;;;1.00;;
28545;SDS011;15749;49.606;8.738;2023-04-03T08:17:46;1.73;;;1.30;;
28545;SDS011;15749;49.606;8.738;2023-04-03T08:20:15;1.97;;;1.20;;
28545;SDS011;15749;49.606;8.738;2023-04-03T08:22:46;2.03;;;1.27;;
28545;SDS011;15749;49.606;8.738;2023-04-03T08:25:15;2.13;;;0.90;;
28545;SDS011;15749;49.606;8.738;2023-04-03T08:27:46;3.43;;;1.20;;
28545;SDS011;15749;49.606;8.738;2023-04-03T08:30:15;1.73;;;1.10;;
28545;SDS011;15749;49.606;8.738;2023-04-03T08:32:44;1.50;;;1.10;;
28545;SDS011;15749;49.606;8.738;2023-04-03T08:35:13;2.40;;;1.20;;
28545;SDS011;15749;49.606;8.738;2023-04-03T08:37:42;2.17;;;1.53;;
28545;SDS011;15749;49.606;8.738;2023-04-03T08:40:13;2.23;;;1.30;;
28545;SDS011;15749;49.606;8.738;2023-04-03T08:42:51;2.77;;;1.00;;
28545;SDS011;15749;49.606;8.738;2023-04-03T08:45:36;2.33;;;1.20;;
28545;SDS011;15749;49.606;8.738;2023-04-03T08:48:13;2.17;;;1.40;;
28545;SDS011;15749;49.606;8.738;2023-04-03T08:50:49;2.73;;;1.33;;
28545;SDS011;15749;49.606;8.738;2023-04-03T08:53:24;2.20;;;0.90;;
28545;SDS011;15749;49.606;8.738;2023-04-03T08:55:59;1.40;;;0.90;;
28545;SDS011;15749;49.606;8.738;2023-04-03T08:58:37;1.80;;;1.00;;
28545;SDS011;15749;49.606;8.738;2023-04-03T09:01:17;3.13;;;1.10;;
28545;SDS011;15749;49.606;8.738;2023-04-03T09:03:48;1.60;;;0.93;;
28545;SDS011;15749;49.606;8.738;2023-04-03T09:06:18;1.60;;;1.10;;
28545;SDS011;15749;49.606;8.738;2023-04-03T09:08:51;2.83;;;1.30;;
28545;SDS011;15749;49.606;8.738;2023-04-03T09:11:35;2.03;;;1.10;;
28545;SDS011;15749;49.606;8.738;2023-04-03T09:14:16;1.03;;;0.93;;
28545;SDS011;15749;49.606;8.738;2023-04-03T09:16:57;1.97;;;1.17;;
28545;SDS011;15749;49.606;8.738;2023-04-03T09:19:34;1.20;;;1.00;;
28545;SDS011;15749;49.606;8.738;2023-04-03T09:22:12;1.53;;;0.83;;
28545;SDS011;15749;49.606;8.738;2023-04-03T09:24:47;2.23;;;1.73;;
28545;SDS011;15749;49.606;8.738;2023-04-03T09:27:24;1.93;;;1.43;;
28545;SDS011;15749;49.606;8.738;2023-04-03T09:29:55;2.40;;;1.50;;
28545;SDS011;15749;49.606;8.738;2023-04-03T09:32:26;1.40;;;0.90;;
28545;SDS011;15749;49.606;8.738;2023-04-03T09:34:59;2.80;;;0.93;;
28545;SDS011;15749;49.606;8.738;2023-04-03T09:37:47;1.80;;;1.10;;
28545;SDS011;15749;49.606;8.738;2023-04-03T09:40:29;1.70;;;0.90;;
28545;SDS011;15749;49.606;8.738;2023-04-03T09:43:19;1.90;;;1.10;;
28545;SDS011;15749;49.606;8.738;2023-04-03T09:45:57;1.10;;;1.00;;
28545;SDS011;15749;49.606;8.738;2023-04-03T09:48:52;1.67;;;1.03;;
28545;SDS011;15749;49.606;8.738;2023-04-03T09:51:35;0.97;;;0.80;;
28545;SDS011;15749;49.606;8.738;2023-04-03T09:54:23;1.03;;;0.83;;
28545;SDS011;15749;49.606;8.738;2023-04-03T09:57:01;1.83;;;0.90;;
28545;SDS011;15749;49.606;8.738;2023-04-03T09:59:36;1.30;;;0.80;;
28545;SDS011;15749;49.606;8.738;2023-04-03T10:02:22;1.73;;;1.10;;
28545;SDS011;15749;49.606;8.738;2023-04-03T10:05:00;1.00;;;0.80;;
28545;SDS011;15749;49.606;8.738;2023-04-03T10:07:37;1.33;;;0.80;;
28545;SDS011;15749;49.606;8.738;2023-04-03T10:10:18;3.43;;;0.90;;
28545;SDS011;15749;49.606;8.738;2023-04-03T10:13:02;1.93;;;0.90;;
28545;SDS011;15749;49.606;8.738;2023-04-03T10:15:39;2.87;;;1.00;;
28545;SDS011;15749;49.606;8.738;2023-04-03T10:18:21;2.03;;;1.10;;
28545;SDS011;15749;49.606;8.738;2023-04-03T10:21:02;1.43;;;1.10;;
28545;SDS011;15749;49.606;8.738;2023-04-03T10:23:57;1.67;;;0.90;;
28545;SDS011;15749;49.606;8.738;2023-04-03T10:26:41;0.87;;;0.80;;
28545;SDS011;15749;49.606;8.738;2023-04-03T10:29:21;1.97;;;1.00;;
28545;SDS011;15749;49.606;8.738;2023-04-03T10:32:14;3.03;;;1.03;;
28545;SDS011;15749;49.606;8.738;2023-04-03T10:35:22;1.10;;;0.90;;
28545;SDS011;15749;49.606;8.738;2023-04-03T10:38:08;2.70;;;1.13;;
28545;SDS011;15749;49.606;8.738;2023-04-03T10:40:47;1.67;;;1.07;;
28545;SDS011;15749;49.606;8.738;2023-04-03T10:43:25;2.90;;;1.23;;
28545;SDS011;15749;49.606;8.738;2023-04-03T10:46:03;7.17;;;2.27;;
